sensor_id;sensor_type;location;lat;lon;timestamp;temperature;humidity
3727;DHT22;1879;45.876;12.300;2022-09-06T00:01:18;23.70;99.90
3727;DHT22;1879;45.876;12.300;2022-09-06T00:03:48;23.80;99.90
3727;DHT22;1879;45.876;12.300;2022-09-06T00:06:18;23.90;99.90
3727;DHT22;1879;45.876;12.300;2022-09-06T00:08:46;23.90;99.90
3727;DHT22;1879;45.876;12.300;2022-09-06T00:11:15;23.90;99.90
3727;DHT22;1879;45.876;12.300;2022-09-06T00:13:44;23.90;99.90
3727;DHT22;1879;45.876;12.300;2022-09-06T00:16:13;23.90;99.90
3727;DHT22;1879;45.876;12.300;2022-09-06T00:18:40;23.90;99.90
3727;DHT22;1879;45.876;12.300;2022-09-06T00:21:14;23.90;99.90
3727;DHT22;1879;45.876;12.300;2022-09-06T00:23:45;23.90;99.90
3727;DHT22;1879;45.876;12.300;2022-09-06T00:26:12;23.90;99.90
3727;DHT22;1879;45.876;12.300;2022-09-06T00:28:39;23.90;99.90
3727;DHT22;1879;45.876;12.300;2022-09-06T00:31:12;24.00;99.90
3727;DHT22;1879;45.876;12.300;2022-09-06T00:33:40;23.90;99.90
3727;DHT22;1879;45.876;12.300;2022-09-06T00:36:07;23.80;99.90
3727;DHT22;1879;45.876;12.300;2022-09-06T00:38:35;23.70;99.90
3727;DHT22;1879;45.876;12.300;2022-09-06T00:41:03;23.70;99.90
3727;DHT22;1879;45.876;12.300;2022-09-06T00:43:30;23.70;99.90
3727;DHT22;1879;45.876;12.300;2022-09-06T00:45:57;23.80;99.90
3727;DHT22;1879;45.876;12.300;2022-09-06T00:48:26;23.80;99.90
3727;DHT22;1879;45.876;12.300;2022-09-06T00:50:56;23.90;99.90
3727;DHT22;1879;45.876;12.300;2022-09-06T00:53:24;23.90;99.90
3727;DHT22;1879;45.876;12.300;2022-09-06T00:55:52;23.90;99.90
3727;DHT22;1879;45.876;12.300;2022-09-06T00:58:19;23.90;99.90
3727;DHT22;1879;45.876;12.300;2022-09-06T01:00:47;23.90;99.90
3727;DHT22;1879;45.876;12.300;2022-09-06T01:03:14;23.80;99.90
3727;DHT22;1879;45.876;12.300;2022-09-06T01:05:49;23.80;99.90
3727;DHT22;1879;45.876;12.300;2022-09-06T01:08:23;23.80;99.90
3727;DHT22;1879;45.876;12.300;2022-09-06T01:11:04;23.70;99.90
3727;DHT22;1879;45.876;12.300;2022-09-06T01:13:43;23.60;99.90
3727;DHT22;1879;45.876;12.300;2022-09-06T01:16:21;23.60;99.90
3727;DHT22;1879;45.876;12.300;2022-09-06T01:19:09;23.50;99.90
3727;DHT22;1879;45.876;12.300;2022-09-06T01:21:47;23.40;99.90
3727;DHT22;1879;45.876;12.300;2022-09-06T01:24:41;23.30;99.90
3727;DHT22;1879;45.876;12.300;2022-09-06T01:27:48;23.40;99.90
3727;DHT22;1879;45.876;12.300;2022-09-06T01:30:20;23.50;99.90
3727;DHT22;1879;45.876;12.300;2022-09-06T01:32:52;23.60;99.90
3727;DHT22;1879;45.876;12.300;2022-09-06T01:35:27;23.70;99.90
3727;DHT22;1879;45.876;12.300;2022-09-06T01:37:56;23.60;99.90
3727;DHT22;1879;45.876;12.300;2022-09-06T01:40:24;23.50;99.90
3727;DHT22;1879;45.876;12.300;2022-09-06T01:42:54;23.50;99.90
3727;DHT22;1879;45.876;12.300;2022-09-06T01:45:26;23.30;99.90
3727;DHT22;1879;45.876;12.300;2022-09-06T01:48:04;23.20;99.90
3727;DHT22;1879;45.876;12.300;2022-09-06T01:50:52;23.20;99.90
3727;DHT22;1879;45.876;12.300;2022-09-06T01:54:00;23.20;99.90
3727;DHT22;1879;45.876;12.300;2022-09-06T01:56:37;23.30;99.90
3727;DHT22;1879;45.876;12.300;2022-09-06T01:59:25;23.20;99.90
3727;DHT22;1879;45.876;12.300;2022-09-06T02:02:00;23.10;99.90
3727;DHT22;1879;45.876;12.300;2022-09-06T02:04:32;23.10;99.90
3727;DHT22;1879;45.876;12.300;2022-09-06T02:07:05;23.00;99.90
3727;DHT22;1879;45.876;12.300;2022-09-06T02:09:37;23.00;99.90
3727;DHT22;1879;45.876;12.300;2022-09-06T02:12:07;22.90;99.90
3727;DHT22;1879;45.876;12.300;2022-09-06T02:14:40;22.80;99.90
3727;DHT22;1879;45.876;12.300;2022-09-06T02:17:11;22.90;99.90
3727;DHT22;1879;45.876;12.300;2022-09-06T02:19:44;22.80;99.90
3727;DHT22;1879;45.876;12.300;2022-09-06T02:22:16;22.80;99.90
3727;DHT22;1879;45.876;12.300;2022-09-06T02:24:46;22.80;99.90
3727;DHT22;1879;45.876;12.300;2022-09-06T02:27:15;22.90;99.90
3727;DHT22;1879;45.876;12.300;2022-09-06T02:29:43;22.90;99.90
3727;DHT22;1879;45.876;12.300;2022-09-06T02:32:15;23.00;99.90
3727;DHT22;1879;45.876;12.300;2022-09-06T02:34:43;23.00;99.90
3727;DHT22;1879;45.876;12.300;2022-09-06T02:37:11;23.00;99.90
3727;DHT22;1879;45.876;12.300;2022-09-06T02:39:39;23.00;99.90
3727;DHT22;1879;45.876;12.300;2022-09-06T02:42:08;23.10;99.90
3727;DHT22;1879;45.876;12.300;2022-09-06T02:44:35;23.20;99.90
3727;DHT22;1879;45.876;12.300;2022-09-06T02:47:04;23.20;99.90
3727;DHT22;1879;45.876;12.300;2022-09-06T02:49:31;23.20;99.90
3727;DHT22;1879;45.876;12.300;2022-09-06T02:51:59;23.30;99.90
3727;DHT22;1879;45.876;12.300;2022-09-06T02:54:26;23.20;99.90
3727;DHT22;1879;45.876;12.300;2022-09-06T02:56:53;23.10;99.90
3727;DHT22;1879;45.876;12.300;2022-09-06T02:59:20;23.00;99.90
3727;DHT22;1879;45.876;12.300;2022-09-06T03:01:47;22.80;99.90
3727;DHT22;1879;45.876;12.300;2022-09-06T03:04:15;22.70;99.90
3727;DHT22;1879;45.876;12.300;2022-09-06T03:06:42;22.60;99.90
3727;DHT22;1879;45.876;12.300;2022-09-06T03:09:09;22.70;99.90
3727;DHT22;1879;45.876;12.300;2022-09-06T03:11:36;22.70;99.90
3727;DHT22;1879;45.876;12.300;2022-09-06T03:14:03;22.60;99.90
3727;DHT22;1879;45.876;12.300;2022-09-06T03:16:30;22.60;99.90
3727;DHT22;1879;45.876;12.300;2022-09-06T03:18:57;22.50;99.90
3727;DHT22;1879;45.876;12.300;2022-09-06T03:21:25;22.40;99.90
3727;DHT22;1879;45.876;12.300;2022-09-06T03:23:52;22.40;99.90
3727;DHT22;1879;45.876;12.300;2022-09-06T03:26:19;22.50;99.90
3727;DHT22;1879;45.876;12.300;2022-09-06T03:28:46;22.60;99.90
3727;DHT22;1879;45.876;12.300;2022-09-06T03:31:14;22.70;99.90
3727;DHT22;1879;45.876;12.300;2022-09-06T03:33:41;22.70;99.90
3727;DHT22;1879;45.876;12.300;2022-09-06T03:36:08;22.80;99.90
3727;DHT22;1879;45.876;12.300;2022-09-06T03:38:37;22.80;99.90
3727;DHT22;1879;45.876;12.300;2022-09-06T03:41:04;22.80;99.90
3727;DHT22;1879;45.876;12.300;2022-09-06T03:43:31;22.90;99.90
3727;DHT22;1879;45.876;12.300;2022-09-06T03:45:58;22.90;99.90
3727;DHT22;1879;45.876;12.300;2022-09-06T03:48:27;22.90;99.90
3727;DHT22;1879;45.876;12.300;2022-09-06T03:50:56;22.80;99.90
3727;DHT22;1879;45.876;12.300;2022-09-06T03:53:25;22.80;99.90
3727;DHT22;1879;45.876;12.300;2022-09-06T03:55:55;22.90;99.90
3727;DHT22;1879;45.876;12.300;2022-09-06T03:58:24;22.90;99.90
3727;DHT22;1879;45.876;12.300;2022-09-06T04:01:02;22.90;99.90
3727;DHT22;1879;45.876;12.300;2022-09-06T04:03:30;22.90;99.90
3727;DHT22;1879;45.876;12.300;2022-09-06T04:05:57;22.90;99.90
3727;DHT22;1879;45.876;12.300;2022-09-06T04:08:24;22.90;99.90
3727;DHT22;1879;45.876;12.300;2022-09-06T04:10:53;22.90;99.90
3727;DHT22;1879;45.876;12.300;2022-09-06T04:13:21;22.90;99.90
3727;DHT22;1879;45.876;12.300;2022-09-06T04:15:49;22.90;99.90
3727;DHT22;1879;45.876;12.300;2022-09-06T04:18:17;22.90;99.90
3727;DHT22;1879;45.876;12.300;2022-09-06T04:20:47;22.90;99.90
3727;DHT22;1879;45.876;12.300;2022-09-06T04:23:14;22.90;99.90
3727;DHT22;1879;45.876;12.300;2022-09-06T04:25:45;22.90;99.90
3727;DHT22;1879;45.876;12.300;2022-09-06T04:28:14;22.90;99.90
3727;DHT22;1879;45.876;12.300;2022-09-06T04:30:43;22.90;99.90
3727;DHT22;1879;45.876;12.300;2022-09-06T04:33:10;22.90;99.90
3727;DHT22;1879;45.876;12.300;2022-09-06T04:35:37;22.90;99.90
3727;DHT22;1879;45.876;12.300;2022-09-06T04:38:04;22.80;99.90
3727;DHT22;1879;45.876;12.300;2022-09-06T04:40:31;22.60;99.90
3727;DHT22;1879;45.876;12.300;2022-09-06T04:42:58;22.30;99.90
3727;DHT22;1879;45.876;12.300;2022-09-06T04:45:26;22.20;99.90
3727;DHT22;1879;45.876;12.300;2022-09-06T04:47:53;22.10;99.90
3727;DHT22;1879;45.876;12.300;2022-09-06T04:50:20;22.00;99.90
3727;DHT22;1879;45.876;12.300;2022-09-06T04:52:47;21.90;99.90
3727;DHT22;1879;45.876;12.300;2022-09-06T04:55:14;21.90;99.90
3727;DHT22;1879;45.876;12.300;2022-09-06T04:57:41;21.80;99.90
3727;DHT22;1879;45.876;12.300;2022-09-06T05:00:09;21.70;99.90
3727;DHT22;1879;45.876;12.300;2022-09-06T05:02:37;21.60;99.90
3727;DHT22;1879;45.876;12.300;2022-09-06T05:05:05;21.70;99.90
3727;DHT22;1879;45.876;12.300;2022-09-06T05:07:32;21.70;99.90
3727;DHT22;1879;45.876;12.300;2022-09-06T05:09:59;21.60;99.90
3727;DHT22;1879;45.876;12.300;2022-09-06T05:12:26;21.60;99.90
3727;DHT22;1879;45.876;12.300;2022-09-06T05:14:53;21.50;99.90
3727;DHT22;1879;45.876;12.300;2022-09-06T05:17:20;21.60;99.90
3727;DHT22;1879;45.876;12.300;2022-09-06T05:19:48;21.60;99.90
3727;DHT22;1879;45.876;12.300;2022-09-06T05:22:15;21.50;99.90
3727;DHT22;1879;45.876;12.300;2022-09-06T05:24:42;21.60;99.90
3727;DHT22;1879;45.876;12.300;2022-09-06T05:27:09;21.60;99.90
3727;DHT22;1879;45.876;12.300;2022-09-06T05:29:37;21.70;99.90
3727;DHT22;1879;45.876;12.300;2022-09-06T05:32:04;21.70;99.90
3727;DHT22;1879;45.876;12.300;2022-09-06T05:34:34;21.90;99.90
3727;DHT22;1879;45.876;12.300;2022-09-06T05:37:03;22.10;99.90
3727;DHT22;1879;45.876;12.300;2022-09-06T05:39:30;22.30;99.90
3727;DHT22;1879;45.876;12.300;2022-09-06T05:41:57;22.30;99.90
3727;DHT22;1879;45.876;12.300;2022-09-06T05:44:25;22.30;99.90
3727;DHT22;1879;45.876;12.300;2022-09-06T05:46:52;22.50;99.90
3727;DHT22;1879;45.876;12.300;2022-09-06T05:49:19;22.70;99.90
3727;DHT22;1879;45.876;12.300;2022-09-06T05:51:49;22.90;99.90
3727;DHT22;1879;45.876;12.300;2022-09-06T05:54:18;23.00;99.90
3727;DHT22;1879;45.876;12.300;2022-09-06T05:56:45;23.00;99.90
3727;DHT22;1879;45.876;12.300;2022-09-06T05:59:12;23.10;99.90
3727;DHT22;1879;45.876;12.300;2022-09-06T06:01:46;23.20;99.90
3727;DHT22;1879;45.876;12.300;2022-09-06T06:04:14;23.40;99.90
3727;DHT22;1879;45.876;12.300;2022-09-06T06:06:41;23.40;99.90
3727;DHT22;1879;45.876;12.300;2022-09-06T06:09:08;23.40;99.90
3727;DHT22;1879;45.876;12.300;2022-09-06T06:11:36;23.30;99.90
3727;DHT22;1879;45.876;12.300;2022-09-06T06:14:03;23.20;99.90
3727;DHT22;1879;45.876;12.300;2022-09-06T06:16:30;23.20;99.90
3727;DHT22;1879;45.876;12.300;2022-09-06T06:18:57;23.20;99.90
3727;DHT22;1879;45.876;12.300;2022-09-06T06:21:26;23.30;99.90
3727;DHT22;1879;45.876;12.300;2022-09-06T06:23:55;23.20;99.90
3727;DHT22;1879;45.876;12.300;2022-09-06T06:26:23;23.30;99.90
3727;DHT22;1879;45.876;12.300;2022-09-06T06:28:51;23.30;99.90
3727;DHT22;1879;45.876;12.300;2022-09-06T06:31:19;23.30;99.90
3727;DHT22;1879;45.876;12.300;2022-09-06T06:33:47;23.30;99.90
3727;DHT22;1879;45.876;12.300;2022-09-06T06:36:19;23.50;99.90
3727;DHT22;1879;45.876;12.300;2022-09-06T06:38:48;23.50;99.90
3727;DHT22;1879;45.876;12.300;2022-09-06T06:41:17;23.60;99.90
3727;DHT22;1879;45.876;12.300;2022-09-06T06:43:45;23.50;99.90
3727;DHT22;1879;45.876;12.300;2022-09-06T06:46:15;23.60;99.90
3727;DHT22;1879;45.876;12.300;2022-09-06T06:48:44;23.60;99.90
3727;DHT22;1879;45.876;12.300;2022-09-06T06:51:12;23.60;99.90
3727;DHT22;1879;45.876;12.300;2022-09-06T06:53:40;23.60;99.90
3727;DHT22;1879;45.876;12.300;2022-09-06T06:56:15;23.70;99.90
3727;DHT22;1879;45.876;12.300;2022-09-06T06:58:43;23.70;99.90
3727;DHT22;1879;45.876;12.300;2022-09-06T07:01:10;23.70;99.90
3727;DHT22;1879;45.876;12.300;2022-09-06T07:03:39;23.70;99.90
3727;DHT22;1879;45.876;12.300;2022-09-06T07:06:07;23.70;99.90
3727;DHT22;1879;45.876;12.300;2022-09-06T07:08:34;23.80;99.90
3727;DHT22;1879;45.876;12.300;2022-09-06T07:11:03;23.80;99.90
3727;DHT22;1879;45.876;12.300;2022-09-06T07:13:30;23.90;99.90
3727;DHT22;1879;45.876;12.300;2022-09-06T07:16:09;24.00;99.90
3727;DHT22;1879;45.876;12.300;2022-09-06T07:18:36;24.00;99.90
3727;DHT22;1879;45.876;12.300;2022-09-06T07:21:09;24.00;99.90
3727;DHT22;1879;45.876;12.300;2022-09-06T07:23:37;24.10;99.90
3727;DHT22;1879;45.876;12.300;2022-09-06T07:26:04;24.20;99.90
3727;DHT22;1879;45.876;12.300;2022-09-06T07:28:31;24.30;99.90
3727;DHT22;1879;45.876;12.300;2022-09-06T07:30:58;24.30;99.90
3727;DHT22;1879;45.876;12.300;2022-09-06T07:33:26;24.20;99.90
3727;DHT22;1879;45.876;12.300;2022-09-06T07:35:58;24.20;99.90
3727;DHT22;1879;45.876;12.300;2022-09-06T07:38:28;24.20;99.90
3727;DHT22;1879;45.876;12.300;2022-09-06T07:40:57;24.20;99.90
3727;DHT22;1879;45.876;12.300;2022-09-06T07:43:25;24.30;99.90
3727;DHT22;1879;45.876;12.300;2022-09-06T07:45:59;24.30;99.90
3727;DHT22;1879;45.876;12.300;2022-09-06T07:48:28;24.40;99.90
3727;DHT22;1879;45.876;12.300;2022-09-06T07:51:03;24.60;99.90
3727;DHT22;1879;45.876;12.300;2022-09-06T07:53:31;24.70;99.90
3727;DHT22;1879;45.876;12.300;2022-09-06T07:55:59;24.70;99.90
3727;DHT22;1879;45.876;12.300;2022-09-06T07:58:27;24.80;99.90
3727;DHT22;1879;45.876;12.300;2022-09-06T08:03:36;24.80;99.90
3727;DHT22;1879;45.876;12.300;2022-09-06T08:06:03;24.90;99.90
3727;DHT22;1879;45.876;12.300;2022-09-06T08:08:31;25.00;99.90
3727;DHT22;1879;45.876;12.300;2022-09-06T08:10:58;25.00;99.90
3727;DHT22;1879;45.876;12.300;2022-09-06T08:13:28;25.00;99.90
3727;DHT22;1879;45.876;12.300;2022-09-06T08:15:57;25.10;99.90
3727;DHT22;1879;45.876;12.300;2022-09-06T08:18:24;25.10;99.90
3727;DHT22;1879;45.876;12.300;2022-09-06T08:20:52;25.20;99.90
3727;DHT22;1879;45.876;12.300;2022-09-06T08:23:19;25.30;99.90
3727;DHT22;1879;45.876;12.300;2022-09-06T08:25:56;25.40;99.90
3727;DHT22;1879;45.876;12.300;2022-09-06T08:28:23;25.40;99.90
3727;DHT22;1879;45.876;12.300;2022-09-06T08:30:50;25.50;99.90
3727;DHT22;1879;45.876;12.300;2022-09-06T08:33:18;25.60;99.90
3727;DHT22;1879;45.876;12.300;2022-09-06T08:35:54;25.60;99.90
3727;DHT22;1879;45.876;12.300;2022-09-06T08:38:21;25.50;99.90
3727;DHT22;1879;45.876;12.300;2022-09-06T08:40:49;25.50;99.90
3727;DHT22;1879;45.876;12.300;2022-09-06T08:43:19;25.70;99.90
3727;DHT22;1879;45.876;12.300;2022-09-06T08:45:49;25.70;99.90
3727;DHT22;1879;45.876;12.300;2022-09-06T08:48:19;25.80;99.90
3727;DHT22;1879;45.876;12.300;2022-09-06T08:50:53;25.80;99.90
3727;DHT22;1879;45.876;12.300;2022-09-06T08:53:23;25.80;99.90
3727;DHT22;1879;45.876;12.300;2022-09-06T08:55:56;25.90;99.90
3727;DHT22;1879;45.876;12.300;2022-09-06T08:58:36;26.00;99.90
3727;DHT22;1879;45.876;12.300;2022-09-06T09:01:07;26.00;99.90
3727;DHT22;1879;45.876;12.300;2022-09-06T09:03:36;26.10;99.90
3727;DHT22;1879;45.876;12.300;2022-09-06T09:06:04;26.10;99.90
3727;DHT22;1879;45.876;12.300;2022-09-06T09:08:38;26.20;99.90
3727;DHT22;1879;45.876;12.300;2022-09-06T09:11:13;26.30;99.90
3727;DHT22;1879;45.876;12.300;2022-09-06T09:13:50;26.30;99.90
3727;DHT22;1879;45.876;12.300;2022-09-06T09:16:18;26.40;99.90
3727;DHT22;1879;45.876;12.300;2022-09-06T09:18:48;26.50;99.90
3727;DHT22;1879;45.876;12.300;2022-09-06T09:21:19;26.60;99.90
3727;DHT22;1879;45.876;12.300;2022-09-06T09:23:52;26.70;99.90
3727;DHT22;1879;45.876;12.300;2022-09-06T09:26:20;26.80;99.90
3727;DHT22;1879;45.876;12.300;2022-09-06T09:29:07;26.90;99.90
3727;DHT22;1879;45.876;12.300;2022-09-06T09:31:36;27.00;99.90
3727;DHT22;1879;45.876;12.300;2022-09-06T09:34:04;27.10;99.90
3727;DHT22;1879;45.876;12.300;2022-09-06T09:36:35;27.10;99.90
3727;DHT22;1879;45.876;12.300;2022-09-06T09:39:08;27.20;99.90
3727;DHT22;1879;45.876;12.300;2022-09-06T09:41:37;27.30;99.90
3727;DHT22;1879;45.876;12.300;2022-09-06T09:44:08;27.50;99.90
3727;DHT22;1879;45.876;12.300;2022-09-06T09:46:37;27.60;99.90
3727;DHT22;1879;45.876;12.300;2022-09-06T09:49:07;27.70;99.90
3727;DHT22;1879;45.876;12.300;2022-09-06T09:51:36;27.80;99.90
3727;DHT22;1879;45.876;12.300;2022-09-06T09:54:05;27.90;99.90
3727;DHT22;1879;45.876;12.300;2022-09-06T09:56:44;28.10;99.90
3727;DHT22;1879;45.876;12.300;2022-09-06T09:59:24;28.20;99.90
3727;DHT22;1879;45.876;12.300;2022-09-06T10:01:54;28.20;99.90
3727;DHT22;1879;45.876;12.300;2022-09-06T10:04:28;28.30;99.90
3727;DHT22;1879;45.876;12.300;2022-09-06T10:07:07;28.30;99.90
3727;DHT22;1879;45.876;12.300;2022-09-06T10:09:38;28.40;99.40
3727;DHT22;1879;45.876;12.300;2022-09-06T10:12:06;28.50;99.80
3727;DHT22;1879;45.876;12.300;2022-09-06T10:14:41;28.50;99.40
3727;DHT22;1879;45.876;12.300;2022-09-06T10:17:17;28.50;99.30
3727;DHT22;1879;45.876;12.300;2022-09-06T10:19:45;28.70;99.40
3727;DHT22;1879;45.876;12.300;2022-09-06T10:22:30;28.80;98.90
3727;DHT22;1879;45.876;12.300;2022-09-06T10:25:29;29.00;99.30
3727;DHT22;1879;45.876;12.300;2022-09-06T10:28:23;29.20;98.50
3727;DHT22;1879;45.876;12.300;2022-09-06T10:31:01;29.40;98.10
3727;DHT22;1879;45.876;12.300;2022-09-06T10:33:36;29.50;98.10
3727;DHT22;1879;45.876;12.300;2022-09-06T10:36:05;29.60;97.80
3727;DHT22;1879;45.876;12.300;2022-09-06T10:38:40;29.50;97.30
3727;DHT22;1879;45.876;12.300;2022-09-06T10:41:25;29.40;96.80
3727;DHT22;1879;45.876;12.300;2022-09-06T10:44:07;29.50;96.90
3727;DHT22;1879;45.876;12.300;2022-09-06T10:46:40;29.70;97.10
3727;DHT22;1879;45.876;12.300;2022-09-06T10:49:14;29.70;96.70
3727;DHT22;1879;45.876;12.300;2022-09-06T10:51:45;29.90;96.60
3727;DHT22;1879;45.876;12.300;2022-09-06T10:54:18;30.20;96.40
3727;DHT22;1879;45.876;12.300;2022-09-06T10:56:50;30.40;96.20
3727;DHT22;1879;45.876;12.300;2022-09-06T10:59:23;30.60;96.20
3727;DHT22;1879;45.876;12.300;2022-09-06T11:02:03;30.80;95.90
3727;DHT22;1879;45.876;12.300;2022-09-06T11:04:36;30.90;95.10
3727;DHT22;1879;45.876;12.300;2022-09-06T11:09:50;31.10;94.60
3727;DHT22;1879;45.876;12.300;2022-09-06T11:12:30;31.00;94.90
3727;DHT22;1879;45.876;12.300;2022-09-06T11:14:59;31.20;94.30
3727;DHT22;1879;45.876;12.300;2022-09-06T11:17:33;31.10;94.20
3727;DHT22;1879;45.876;12.300;2022-09-06T11:20:06;31.40;94.10
3727;DHT22;1879;45.876;12.300;2022-09-06T11:23:07;31.20;93.90
3727;DHT22;1879;45.876;12.300;2022-09-06T11:25:53;31.60;93.60
3727;DHT22;1879;45.876;12.300;2022-09-06T11:28:28;32.00;93.70
3727;DHT22;1879;45.876;12.300;2022-09-06T11:30:58;32.50;92.40
3727;DHT22;1879;45.876;12.300;2022-09-06T11:33:28;32.70;92.50
3727;DHT22;1879;45.876;12.300;2022-09-06T11:36:14;32.60;91.70
3727;DHT22;1879;45.876;12.300;2022-09-06T11:38:42;32.40;91.30
3727;DHT22;1879;45.876;12.300;2022-09-06T11:41:19;32.00;91.10
3727;DHT22;1879;45.876;12.300;2022-09-06T11:43:48;32.50;91.10
3727;DHT22;1879;45.876;12.300;2022-09-06T11:49:35;33.10;90.10
3727;DHT22;1879;45.876;12.300;2022-09-06T11:55:38;34.50;84.90
3727;DHT22;1879;45.876;12.300;2022-09-06T11:58:09;35.20;81.70
3727;DHT22;1879;45.876;12.300;2022-09-06T12:00:37;35.80;79.70
3727;DHT22;1879;45.876;12.300;2022-09-06T12:03:06;36.40;77.60
3727;DHT22;1879;45.876;12.300;2022-09-06T12:06:14;36.80;76.00
3727;DHT22;1879;45.876;12.300;2022-09-06T12:08:42;36.20;72.80
3727;DHT22;1879;45.876;12.300;2022-09-06T12:11:28;35.20;74.60
3727;DHT22;1879;45.876;12.300;2022-09-06T12:14:00;34.00;77.10
3727;DHT22;1879;45.876;12.300;2022-09-06T12:17:16;33.40;79.90
3727;DHT22;1879;45.876;12.300;2022-09-06T12:19:45;32.60;80.80
3727;DHT22;1879;45.876;12.300;2022-09-06T12:25:57;32.60;83.60
3727;DHT22;1879;45.876;12.300;2022-09-06T12:28:29;32.80;80.90
3727;DHT22;1879;45.876;12.300;2022-09-06T12:30:57;35.40;80.30
3727;DHT22;1879;45.876;12.300;2022-09-06T12:33:28;36.70;76.70
3727;DHT22;1879;45.876;12.300;2022-09-06T12:36:11;36.00;76.00
3727;DHT22;1879;45.876;12.300;2022-09-06T12:38:38;34.20;75.60
3727;DHT22;1879;45.876;12.300;2022-09-06T12:41:07;34.90;76.10
3727;DHT22;1879;45.876;12.300;2022-09-06T12:43:37;35.40;74.60
3727;DHT22;1879;45.876;12.300;2022-09-06T12:46:05;36.00;74.10
3727;DHT22;1879;45.876;12.300;2022-09-06T12:48:35;35.10;73.50
3727;DHT22;1879;45.876;12.300;2022-09-06T12:51:06;34.00;74.60
3727;DHT22;1879;45.876;12.300;2022-09-06T12:53:38;33.30;76.30
3727;DHT22;1879;45.876;12.300;2022-09-06T12:56:08;34.10;76.50
3727;DHT22;1879;45.876;12.300;2022-09-06T12:58:37;36.00;74.60
3727;DHT22;1879;45.876;12.300;2022-09-06T13:06:05;40.80;62.10
3727;DHT22;1879;45.876;12.300;2022-09-06T13:08:35;40.50;60.40
3727;DHT22;1879;45.876;12.300;2022-09-06T13:11:09;40.90;60.10
3727;DHT22;1879;45.876;12.300;2022-09-06T13:13:45;41.60;59.30
3727;DHT22;1879;45.876;12.300;2022-09-06T13:16:19;42.30;57.50
3727;DHT22;1879;45.876;12.300;2022-09-06T13:18:46;42.80;56.20
3727;DHT22;1879;45.876;12.300;2022-09-06T13:21:24;43.20;55.50
3727;DHT22;1879;45.876;12.300;2022-09-06T13:23:51;43.70;53.10
3727;DHT22;1879;45.876;12.300;2022-09-06T13:26:33;44.00;53.10
3727;DHT22;1879;45.876;12.300;2022-09-06T13:29:20;43.50;50.70
3727;DHT22;1879;45.876;12.300;2022-09-06T13:31:48;41.70;50.50
3727;DHT22;1879;45.876;12.300;2022-09-06T13:34:20;40.60;51.90
3727;DHT22;1879;45.876;12.300;2022-09-06T13:36:48;40.10;52.60
3727;DHT22;1879;45.876;12.300;2022-09-06T13:39:30;41.00;53.60
3727;DHT22;1879;45.876;12.300;2022-09-06T13:42:04;41.50;51.20
3727;DHT22;1879;45.876;12.300;2022-09-06T13:44:33;42.30;51.00
3727;DHT22;1879;45.876;12.300;2022-09-06T13:47:00;42.80;50.70
3727;DHT22;1879;45.876;12.300;2022-09-06T13:49:28;43.10;50.60
3727;DHT22;1879;45.876;12.300;2022-09-06T13:51:58;42.20;47.90
3727;DHT22;1879;45.876;12.300;2022-09-06T13:54:27;40.70;50.60
3727;DHT22;1879;45.876;12.300;2022-09-06T13:56:54;40.40;51.20
3727;DHT22;1879;45.876;12.300;2022-09-06T13:59:23;41.10;50.60
3727;DHT22;1879;45.876;12.300;2022-09-06T14:01:57;40.80;51.20
3727;DHT22;1879;45.876;12.300;2022-09-06T14:04:26;41.30;50.50
3727;DHT22;1879;45.876;12.300;2022-09-06T14:06:53;41.90;50.30
3727;DHT22;1879;45.876;12.300;2022-09-06T14:09:21;42.70;50.20
3727;DHT22;1879;45.876;12.300;2022-09-06T14:11:48;41.30;49.10
3727;DHT22;1879;45.876;12.300;2022-09-06T14:14:15;40.30;50.10
3727;DHT22;1879;45.876;12.300;2022-09-06T14:16:45;38.40;51.50
3727;DHT22;1879;45.876;12.300;2022-09-06T14:19:13;38.90;52.80
3727;DHT22;1879;45.876;12.300;2022-09-06T14:21:40;39.90;52.20
3727;DHT22;1879;45.876;12.300;2022-09-06T14:24:08;40.80;51.50
3727;DHT22;1879;45.876;12.300;2022-09-06T14:26:35;41.50;51.10
3727;DHT22;1879;45.876;12.300;2022-09-06T14:29:03;41.40;50.60
3727;DHT22;1879;45.876;12.300;2022-09-06T14:31:31;41.30;51.30
3727;DHT22;1879;45.876;12.300;2022-09-06T14:34:02;41.80;50.80
3727;DHT22;1879;45.876;12.300;2022-09-06T14:36:30;42.30;49.90
3727;DHT22;1879;45.876;12.300;2022-09-06T14:38:59;42.40;49.20
3727;DHT22;1879;45.876;12.300;2022-09-06T14:41:26;41.30;49.50
3727;DHT22;1879;45.876;12.300;2022-09-06T14:43:55;40.70;50.00
3727;DHT22;1879;45.876;12.300;2022-09-06T14:46:23;41.20;50.60
3727;DHT22;1879;45.876;12.300;2022-09-06T14:48:56;41.40;50.20
3727;DHT22;1879;45.876;12.300;2022-09-06T14:51:24;40.70;49.90
3727;DHT22;1879;45.876;12.300;2022-09-06T14:53:53;38.90;51.20
3727;DHT22;1879;45.876;12.300;2022-09-06T14:56:20;37.90;53.10
3727;DHT22;1879;45.876;12.300;2022-09-06T14:58:48;37.40;53.90
3727;DHT22;1879;45.876;12.300;2022-09-06T15:01:16;36.80;55.30
3727;DHT22;1879;45.876;12.300;2022-09-06T15:03:46;35.80;55.70
3727;DHT22;1879;45.876;12.300;2022-09-06T15:06:17;35.10;56.90
3727;DHT22;1879;45.876;12.300;2022-09-06T15:08:46;34.60;59.40
3727;DHT22;1879;45.876;12.300;2022-09-06T15:11:14;34.30;61.60
3727;DHT22;1879;45.876;12.300;2022-09-06T15:13:41;33.90;62.90
3727;DHT22;1879;45.876;12.300;2022-09-06T15:16:09;33.70;64.20
3727;DHT22;1879;45.876;12.300;2022-09-06T15:18:36;33.60;65.20
3727;DHT22;1879;45.876;12.300;2022-09-06T15:21:09;34.20;66.10
3727;DHT22;1879;45.876;12.300;2022-09-06T15:23:36;35.30;64.90
3727;DHT22;1879;45.876;12.300;2022-09-06T15:26:06;35.10;64.40
3727;DHT22;1879;45.876;12.300;2022-09-06T15:28:33;34.90;65.30
3727;DHT22;1879;45.876;12.300;2022-09-06T15:31:01;35.80;65.40
3727;DHT22;1879;45.876;12.300;2022-09-06T15:33:28;36.80;64.10
3727;DHT22;1879;45.876;12.300;2022-09-06T15:35:56;37.00;62.70
3727;DHT22;1879;45.876;12.300;2022-09-06T15:38:23;36.10;62.70
3727;DHT22;1879;45.876;12.300;2022-09-06T15:40:50;35.30;64.20
3727;DHT22;1879;45.876;12.300;2022-09-06T15:43:18;34.90;65.40
3727;DHT22;1879;45.876;12.300;2022-09-06T15:45:46;35.40;65.90
3727;DHT22;1879;45.876;12.300;2022-09-06T15:48:14;36.00;65.50
3727;DHT22;1879;45.876;12.300;2022-09-06T15:50:42;36.50;64.50
3727;DHT22;1879;45.876;12.300;2022-09-06T15:53:09;36.80;64.40
3727;DHT22;1879;45.876;12.300;2022-09-06T15:55:37;37.00;64.00
3727;DHT22;1879;45.876;12.300;2022-09-06T15:58:23;36.30;63.90
3727;DHT22;1879;45.876;12.300;2022-09-06T16:01:05;35.10;65.70
3727;DHT22;1879;45.876;12.300;2022-09-06T16:03:35;34.20;68.50
3727;DHT22;1879;45.876;12.300;2022-09-06T16:06:05;33.50;69.80
3727;DHT22;1879;45.876;12.300;2022-09-06T16:08:32;33.30;70.80
3727;DHT22;1879;45.876;12.300;2022-09-06T16:11:04;33.20;71.60
3727;DHT22;1879;45.876;12.300;2022-09-06T16:13:34;32.80;72.30
3727;DHT22;1879;45.876;12.300;2022-09-06T16:16:03;32.50;73.80
3727;DHT22;1879;45.876;12.300;2022-09-06T16:18:31;32.20;74.90
3727;DHT22;1879;45.876;12.300;2022-09-06T16:21:03;32.00;75.80
3727;DHT22;1879;45.876;12.300;2022-09-06T16:23:31;31.80;77.70
3727;DHT22;1879;45.876;12.300;2022-09-06T16:25:58;31.70;78.40
3727;DHT22;1879;45.876;12.300;2022-09-06T16:28:27;31.70;79.20